sensor_id;sensor_type;location;lat;lon;timestamp;P1;durP1;ratioP1;P2;durP2;ratioP2
27728;SDS011;15126;42.186;24.340;2023-07-13T00:01:36;9.90;;;9.00;;
27728;SDS011;15126;42.186;24.340;2023-07-13T00:04:03;11.30;;;10.10;;
27728;SDS011;15126;42.186;24.340;2023-07-13T00:06:31;10.73;;;9.77;;
27728;SDS011;15126;42.186;24.340;2023-07-13T00:08:58;10.07;;;9.17;;
27728;SDS011;15126;42.186;24.340;2023-07-13T00:11:24;11.13;;;10.03;;
27728;SDS011;15126;42.186;24.340;2023-07-13T00:13:51;10.77;;;9.80;;
27728;SDS011;15126;42.186;24.340;2023-07-13T00:16:18;10.57;;;8.80;;
27728;SDS011;15126;42.186;24.340;2023-07-13T00:18:46;9.50;;;8.53;;
27728;SDS011;15126;42.186;24.340;2023-07-13T00:21:13;9.70;;;8.97;;
27728;SDS011;15126;42.186;24.340;2023-07-13T00:23:41;10.80;;;9.73;;
27728;SDS011;15126;42.186;24.340;2023-07-13T00:26:09;9.73;;;8.90;;
27728;SDS011;15126;42.186;24.340;2023-07-13T00:28:37;10.80;;;9.43;;
27728;SDS011;15126;42.186;24.340;2023-07-13T00:31:05;9.90;;;8.90;;
27728;SDS011;15126;42.186;24.340;2023-07-13T00:33:32;9.40;;;8.70;;
27728;SDS011;15126;42.186;24.340;2023-07-13T00:36:00;9.30;;;8.40;;
27728;SDS011;15126;42.186;24.340;2023-07-13T00:38:27;11.03;;;7.83;;
27728;SDS011;15126;42.186;24.340;2023-07-13T00:40:54;9.40;;;7.90;;
27728;SDS011;15126;42.186;24.340;2023-07-13T00:43:21;8.87;;;8.07;;
27728;SDS011;15126;42.186;24.340;2023-07-13T00:46:10;8.67;;;7.97;;
27728;SDS011;15126;42.186;24.340;2023-07-13T00:48:43;8.17;;;7.50;;
27728;SDS011;15126;42.186;24.340;2023-07-13T00:51:13;8.43;;;7.73;;
27728;SDS011;15126;42.186;24.340;2023-07-13T00:53:42;7.90;;;7.03;;
27728;SDS011;15126;42.186;24.340;2023-07-13T00:56:09;8.60;;;7.80;;
27728;SDS011;15126;42.186;24.340;2023-07-13T00:58:37;7.80;;;6.87;;
27728;SDS011;15126;42.186;24.340;2023-07-13T01:01:04;10.03;;;7.43;;
27728;SDS011;15126;42.186;24.340;2023-07-13T01:03:31;8.20;;;7.40;;
27728;SDS011;15126;42.186;24.340;2023-07-13T01:05:58;8.40;;;7.70;;
27728;SDS011;15126;42.186;24.340;2023-07-13T01:08:26;10.43;;;7.13;;
27728;SDS011;15126;42.186;24.340;2023-07-13T01:10:53;9.77;;;6.70;;
27728;SDS011;15126;42.186;24.340;2023-07-13T01:13:21;7.67;;;6.97;;
27728;SDS011;15126;42.186;24.340;2023-07-13T01:15:49;10.53;;;7.07;;
27728;SDS011;15126;42.186;24.340;2023-07-13T01:18:18;8.73;;;7.63;;
27728;SDS011;15126;42.186;24.340;2023-07-13T01:20:51;8.40;;;7.60;;
27728;SDS011;15126;42.186;24.340;2023-07-13T01:23:19;12.10;;;7.80;;
27728;SDS011;15126;42.186;24.340;2023-07-13T01:25:47;9.73;;;7.57;;
27728;SDS011;15126;42.186;24.340;2023-07-13T01:28:14;8.70;;;7.57;;
27728;SDS011;15126;42.186;24.340;2023-07-13T01:30:41;8.30;;;7.60;;
27728;SDS011;15126;42.186;24.340;2023-07-13T01:33:11;8.30;;;7.53;;
27728;SDS011;15126;42.186;24.340;2023-07-13T01:35:39;8.80;;;7.87;;
27728;SDS011;15126;42.186;24.340;2023-07-13T01:38:08;9.10;;;8.07;;
27728;SDS011;15126;42.186;24.340;2023-07-13T01:40:37;9.17;;;7.70;;
27728;SDS011;15126;42.186;24.340;2023-07-13T01:43:05;9.43;;;8.47;;
27728;SDS011;15126;42.186;24.340;2023-07-13T01:45:32;8.70;;;7.60;;
27728;SDS011;15126;42.186;24.340;2023-07-13T01:47:59;8.03;;;7.33;;
27728;SDS011;15126;42.186;24.340;2023-07-13T01:50:26;11.70;;;8.17;;
27728;SDS011;15126;42.186;24.340;2023-07-13T01:52:53;10.20;;;7.97;;
27728;SDS011;15126;42.186;24.340;2023-07-13T01:55:22;8.73;;;8.03;;
27728;SDS011;15126;42.186;24.340;2023-07-13T01:57:49;8.13;;;7.43;;
27728;SDS011;15126;42.186;24.340;2023-07-13T02:00:16;8.50;;;7.70;;
27728;SDS011;15126;42.186;24.340;2023-07-13T02:02:44;9.23;;;8.33;;
27728;SDS011;15126;42.186;24.340;2023-07-13T02:05:11;10.43;;;8.70;;
27728;SDS011;15126;42.186;24.340;2023-07-13T02:07:38;10.90;;;9.93;;
27728;SDS011;15126;42.186;24.340;2023-07-13T02:10:06;12.13;;;10.90;;
27728;SDS011;15126;42.186;24.340;2023-07-13T02:12:35;11.00;;;10.00;;
27728;SDS011;15126;42.186;24.340;2023-07-13T02:15:08;10.27;;;8.80;;
27728;SDS011;15126;42.186;24.340;2023-07-13T02:17:36;9.77;;;8.80;;
27728;SDS011;15126;42.186;24.340;2023-07-13T02:20:03;9.57;;;8.77;;
27728;SDS011;15126;42.186;24.340;2023-07-13T02:22:31;10.07;;;9.10;;
27728;SDS011;15126;42.186;24.340;2023-07-13T02:24:58;9.27;;;8.47;;
27728;SDS011;15126;42.186;24.340;2023-07-13T02:27:25;9.40;;;8.67;;
27728;SDS011;15126;42.186;24.340;2023-07-13T02:29:53;10.03;;;9.10;;
27728;SDS011;15126;42.186;24.340;2023-07-13T02:32:20;8.67;;;7.80;;
27728;SDS011;15126;42.186;24.340;2023-07-13T02:34:47;9.73;;;8.77;;
27728;SDS011;15126;42.186;24.340;2023-07-13T02:37:14;9.73;;;8.83;;
27728;SDS011;15126;42.186;24.340;2023-07-13T02:39:41;9.60;;;8.70;;
27728;SDS011;15126;42.186;24.340;2023-07-13T02:42:07;9.93;;;8.97;;
27728;SDS011;15126;42.186;24.340;2023-07-13T02:44:34;9.13;;;8.30;;
27728;SDS011;15126;42.186;24.340;2023-07-13T02:47:02;13.43;;;9.13;;
27728;SDS011;15126;42.186;24.340;2023-07-13T02:49:29;8.70;;;8.00;;
27728;SDS011;15126;42.186;24.340;2023-07-13T02:51:56;10.73;;;9.80;;
27728;SDS011;15126;42.186;24.340;2023-07-13T02:54:23;14.63;;;10.00;;
27728;SDS011;15126;42.186;24.340;2023-07-13T02:56:50;10.57;;;9.40;;
27728;SDS011;15126;42.186;24.340;2023-07-13T02:59:16;11.07;;;9.93;;
27728;SDS011;15126;42.186;24.340;2023-07-13T03:01:43;10.83;;;9.70;;
27728;SDS011;15126;42.186;24.340;2023-07-13T03:04:11;13.17;;;10.70;;
27728;SDS011;15126;42.186;24.340;2023-07-13T03:06:39;10.83;;;9.57;;
27728;SDS011;15126;42.186;24.340;2023-07-13T03:09:05;11.93;;;9.53;;
27728;SDS011;15126;42.186;24.340;2023-07-13T03:11:33;11.00;;;9.73;;
27728;SDS011;15126;42.186;24.340;2023-07-13T03:13:59;10.87;;;9.67;;
27728;SDS011;15126;42.186;24.340;2023-07-13T03:16:26;10.40;;;9.60;;
27728;SDS011;15126;42.186;24.340;2023-07-13T03:18:53;11.97;;;10.77;;
27728;SDS011;15126;42.186;24.340;2023-07-13T03:21:21;13.20;;;10.33;;
27728;SDS011;15126;42.186;24.340;2023-07-13T03:23:48;11.03;;;10.03;;
27728;SDS011;15126;42.186;24.340;2023-07-13T03:26:16;11.50;;;10.30;;
27728;SDS011;15126;42.186;24.340;2023-07-13T03:28:44;12.50;;;8.73;;
27728;SDS011;15126;42.186;24.340;2023-07-13T03:31:13;14.57;;;10.07;;
27728;SDS011;15126;42.186;24.340;2023-07-13T03:33:41;12.53;;;10.27;;
27728;SDS011;15126;42.186;24.340;2023-07-13T03:36:13;11.07;;;9.97;;
27728;SDS011;15126;42.186;24.340;2023-07-13T03:38:45;10.60;;;9.63;;
27728;SDS011;15126;42.186;24.340;2023-07-13T03:41:13;9.67;;;8.87;;
27728;SDS011;15126;42.186;24.340;2023-07-13T03:43:41;16.67;;;9.93;;
27728;SDS011;15126;42.186;24.340;2023-07-13T03:46:08;12.43;;;10.40;;
27728;SDS011;15126;42.186;24.340;2023-07-13T03:48:35;18.17;;;14.20;;
27728;SDS011;15126;42.186;24.340;2023-07-13T03:51:02;13.40;;;12.17;;
27728;SDS011;15126;42.186;24.340;2023-07-13T03:53:29;16.50;;;13.50;;
27728;SDS011;15126;42.186;24.340;2023-07-13T03:55:57;11.67;;;10.17;;
27728;SDS011;15126;42.186;24.340;2023-07-13T03:58:25;15.33;;;10.73;;
27728;SDS011;15126;42.186;24.340;2023-07-13T04:00:54;11.00;;;9.87;;
27728;SDS011;15126;42.186;24.340;2023-07-13T04:03:21;10.93;;;9.93;;
27728;SDS011;15126;42.186;24.340;2023-07-13T04:05:48;12.43;;;10.10;;
27728;SDS011;15126;42.186;24.340;2023-07-13T04:08:15;11.50;;;10.40;;
27728;SDS011;15126;42.186;24.340;2023-07-13T04:10:42;15.50;;;9.33;;
27728;SDS011;15126;42.186;24.340;2023-07-13T04:13:10;12.77;;;10.03;;
27728;SDS011;15126;42.186;24.340;2023-07-13T04:15:38;12.00;;;11.07;;
27728;SDS011;15126;42.186;24.340;2023-07-13T04:18:05;15.87;;;10.57;;
27728;SDS011;15126;42.186;24.340;2023-07-13T04:20:32;12.87;;;9.80;;
27728;SDS011;15126;42.186;24.340;2023-07-13T04:22:59;11.50;;;9.63;;
27728;SDS011;15126;42.186;24.340;2023-07-13T04:25:26;10.30;;;9.23;;
27728;SDS011;15126;42.186;24.340;2023-07-13T04:27:53;12.50;;;9.30;;
27728;SDS011;15126;42.186;24.340;2023-07-13T04:30:21;11.93;;;9.37;;
27728;SDS011;15126;42.186;24.340;2023-07-13T04:32:49;11.47;;;10.20;;
27728;SDS011;15126;42.186;24.340;2023-07-13T04:35:18;11.05;;;10.05;;
27728;SDS011;15126;42.186;24.340;2023-07-13T04:37:45;11.33;;;10.23;;
27728;SDS011;15126;42.186;24.340;2023-07-13T04:40:13;11.68;;;10.55;;
27728;SDS011;15126;42.186;24.340;2023-07-13T04:42:40;10.27;;;9.35;;
27728;SDS011;15126;42.186;24.340;2023-07-13T04:45:07;11.60;;;10.45;;
27728;SDS011;15126;42.186;24.340;2023-07-13T04:47:36;12.15;;;10.95;;
27728;SDS011;15126;42.186;24.340;2023-07-13T04:50:02;14.85;;;10.95;;
27728;SDS011;15126;42.186;24.340;2023-07-13T04:52:30;11.73;;;10.57;;
27728;SDS011;15126;42.186;24.340;2023-07-13T04:54:58;14.40;;;9.98;;
27728;SDS011;15126;42.186;24.340;2023-07-13T04:57:25;12.00;;;10.80;;
27728;SDS011;15126;42.186;24.340;2023-07-13T04:59:51;11.23;;;10.10;;
27728;SDS011;15126;42.186;24.340;2023-07-13T05:02:20;11.85;;;10.45;;
27728;SDS011;15126;42.186;24.340;2023-07-13T05:04:48;11.48;;;10.40;;
27728;SDS011;15126;42.186;24.340;2023-07-13T05:07:15;12.35;;;10.07;;
27728;SDS011;15126;42.186;24.340;2023-07-13T05:09:42;11.18;;;9.90;;
27728;SDS011;15126;42.186;24.340;2023-07-13T05:12:09;11.32;;;9.00;;
27728;SDS011;15126;42.186;24.340;2023-07-13T05:14:36;14.52;;;10.93;;
27728;SDS011;15126;42.186;24.340;2023-07-13T05:17:03;10.50;;;9.52;;
27728;SDS011;15126;42.186;24.340;2023-07-13T05:19:30;11.65;;;9.38;;
27728;SDS011;15126;42.186;24.340;2023-07-13T05:21:58;12.55;;;10.23;;
27728;SDS011;15126;42.186;24.340;2023-07-13T05:24:25;11.07;;;10.05;;
27728;SDS011;15126;42.186;24.340;2023-07-13T05:26:52;11.07;;;9.85;;
27728;SDS011;15126;42.186;24.340;2023-07-13T05:29:19;11.30;;;10.40;;
27728;SDS011;15126;42.186;24.340;2023-07-13T05:31:47;12.18;;;9.48;;
27728;SDS011;15126;42.186;24.340;2023-07-13T05:34:13;10.80;;;9.73;;
27728;SDS011;15126;42.186;24.340;2023-07-13T05:36:40;10.70;;;9.55;;
27728;SDS011;15126;42.186;24.340;2023-07-13T05:39:09;11.75;;;10.00;;
27728;SDS011;15126;42.186;24.340;2023-07-13T05:41:36;10.73;;;9.77;;
27728;SDS011;15126;42.186;24.340;2023-07-13T05:44:03;12.55;;;9.88;;
27728;SDS011;15126;42.186;24.340;2023-07-13T05:46:30;11.32;;;10.07;;
27728;SDS011;15126;42.186;24.340;2023-07-13T05:48:57;11.55;;;9.77;;
27728;SDS011;15126;42.186;24.340;2023-07-13T05:51:24;10.57;;;9.60;;
27728;SDS011;15126;42.186;24.340;2023-07-13T05:53:50;12.10;;;9.82;;
27728;SDS011;15126;42.186;24.340;2023-07-13T05:56:19;10.77;;;9.57;;
27728;SDS011;15126;42.186;24.340;2023-07-13T05:58:46;17.65;;;10.18;;
27728;SDS011;15126;42.186;24.340;2023-07-13T06:01:14;12.13;;;9.82;;
27728;SDS011;15126;42.186;24.340;2023-07-13T06:03:42;11.85;;;9.75;;
27728;SDS011;15126;42.186;24.340;2023-07-13T06:06:09;11.00;;;10.02;;
27728;SDS011;15126;42.186;24.340;2023-07-13T06:08:36;14.65;;;10.40;;
27728;SDS011;15126;42.186;24.340;2023-07-13T06:11:03;10.57;;;9.68;;
27728;SDS011;15126;42.186;24.340;2023-07-13T06:13:33;11.70;;;9.63;;
27728;SDS011;15126;42.186;24.340;2023-07-13T06:16:02;10.52;;;9.05;;
27728;SDS011;15126;42.186;24.340;2023-07-13T06:18:30;16.33;;;9.85;;
27728;SDS011;15126;42.186;24.340;2023-07-13T06:20:57;11.20;;;9.70;;
27728;SDS011;15126;42.186;24.340;2023-07-13T06:23:24;11.13;;;9.25;;
27728;SDS011;15126;42.186;24.340;2023-07-13T06:25:51;10.15;;;8.70;;
27728;SDS011;15126;42.186;24.340;2023-07-13T06:28:24;15.18;;;10.02;;
27728;SDS011;15126;42.186;24.340;2023-07-13T06:30:58;11.80;;;10.55;;
27728;SDS011;15126;42.186;24.340;2023-07-13T06:33:28;12.07;;;10.27;;
27728;SDS011;15126;42.186;24.340;2023-07-13T06:35:55;11.32;;;9.15;;
27728;SDS011;15126;42.186;24.340;2023-07-13T06:38:22;10.35;;;9.32;;
27728;SDS011;15126;42.186;24.340;2023-07-13T06:40:48;10.95;;;10.02;;
27728;SDS011;15126;42.186;24.340;2023-07-13T06:43:15;16.02;;;10.07;;
27728;SDS011;15126;42.186;24.340;2023-07-13T06:45:44;11.45;;;10.15;;
27728;SDS011;15126;42.186;24.340;2023-07-13T06:48:16;12.10;;;10.85;;
27728;SDS011;15126;42.186;24.340;2023-07-13T06:50:44;12.07;;;11.02;;
27728;SDS011;15126;42.186;24.340;2023-07-13T06:53:11;12.23;;;11.05;;
27728;SDS011;15126;42.186;24.340;2023-07-13T06:55:39;13.68;;;11.43;;
27728;SDS011;15126;42.186;24.340;2023-07-13T06:58:06;12.82;;;10.32;;
27728;SDS011;15126;42.186;24.340;2023-07-13T07:00:34;12.55;;;11.45;;
27728;SDS011;15126;42.186;24.340;2023-07-13T07:03:01;11.98;;;10.45;;
27728;SDS011;15126;42.186;24.340;2023-07-13T07:05:29;11.82;;;10.70;;
27728;SDS011;15126;42.186;24.340;2023-07-13T07:07:56;11.77;;;10.75;;
27728;SDS011;15126;42.186;24.340;2023-07-13T07:10:22;12.65;;;11.43;;
27728;SDS011;15126;42.186;24.340;2023-07-13T07:12:49;12.13;;;10.85;;
27728;SDS011;15126;42.186;24.340;2023-07-13T07:15:16;14.30;;;11.82;;
27728;SDS011;15126;42.186;24.340;2023-07-13T07:17:44;11.15;;;10.18;;
27728;SDS011;15126;42.186;24.340;2023-07-13T07:20:11;13.45;;;11.65;;
27728;SDS011;15126;42.186;24.340;2023-07-13T07:22:40;11.95;;;10.70;;
27728;SDS011;15126;42.186;24.340;2023-07-13T07:25:08;12.75;;;11.52;;
27728;SDS011;15126;42.186;24.340;2023-07-13T07:27:35;12.38;;;11.30;;
27728;SDS011;15126;42.186;24.340;2023-07-13T07:30:04;13.23;;;11.85;;
27728;SDS011;15126;42.186;24.340;2023-07-13T07:32:32;13.20;;;11.90;;
27728;SDS011;15126;42.186;24.340;2023-07-13T07:34:59;11.57;;;10.57;;
27728;SDS011;15126;42.186;24.340;2023-07-13T07:37:26;12.50;;;11.18;;
27728;SDS011;15126;42.186;24.340;2023-07-13T07:39:54;12.45;;;10.73;;
27728;SDS011;15126;42.186;24.340;2023-07-13T07:42:20;10.82;;;9.80;;
27728;SDS011;15126;42.186;24.340;2023-07-13T07:44:51;11.52;;;10.63;;
27728;SDS011;15126;42.186;24.340;2023-07-13T07:47:18;10.77;;;9.88;;
27728;SDS011;15126;42.186;24.340;2023-07-13T07:49:48;10.73;;;9.93;;
27728;SDS011;15126;42.186;24.340;2023-07-13T07:52:17;11.18;;;10.10;;
27728;SDS011;15126;42.186;24.340;2023-07-13T07:54:44;11.38;;;10.35;;
27728;SDS011;15126;42.186;24.340;2023-07-13T07:57:12;11.23;;;10.30;;
27728;SDS011;15126;42.186;24.340;2023-07-13T07:59:39;10.98;;;9.98;;
27728;SDS011;15126;42.186;24.340;2023-07-13T08:02:08;10.93;;;9.80;;
27728;SDS011;15126;42.186;24.340;2023-07-13T08:04:36;8.85;;;8.13;;
27728;SDS011;15126;42.186;24.340;2023-07-13T08:07:03;10.93;;;7.93;;
27728;SDS011;15126;42.186;24.340;2023-07-13T08:09:30;8.57;;;7.13;;
27728;SDS011;15126;42.186;24.340;2023-07-13T08:11:57;9.63;;;6.47;;
27728;SDS011;15126;42.186;24.340;2023-07-13T08:14:25;7.00;;;6.38;;
27728;SDS011;15126;42.186;24.340;2023-07-13T08:16:54;8.00;;;7.20;;
27728;SDS011;15126;42.186;24.340;2023-07-13T08:19:20;8.35;;;7.22;;
27728;SDS011;15126;42.186;24.340;2023-07-13T08:21:47;7.70;;;6.38;;
27728;SDS011;15126;42.186;24.340;2023-07-13T08:24:18;7.85;;;7.07;;
27728;SDS011;15126;42.186;24.340;2023-07-13T08:26:47;6.90;;;6.40;;
27728;SDS011;15126;42.186;24.340;2023-07-13T08:29:14;9.32;;;7.63;;
27728;SDS011;15126;42.186;24.340;2023-07-13T08:31:42;9.80;;;7.00;;
27728;SDS011;15126;42.186;24.340;2023-07-13T08:34:10;8.45;;;7.38;;
27728;SDS011;15126;42.186;24.340;2023-07-13T08:36:39;8.85;;;7.20;;
27728;SDS011;15126;42.186;24.340;2023-07-13T08:39:06;12.38;;;7.10;;
27728;SDS011;15126;42.186;24.340;2023-07-13T08:41:36;9.90;;;7.15;;
27728;SDS011;15126;42.186;24.340;2023-07-13T08:44:04;7.70;;;7.00;;
27728;SDS011;15126;42.186;24.340;2023-07-13T08:46:44;8.82;;;6.43;;
27728;SDS011;15126;42.186;24.340;2023-07-13T08:49:14;10.10;;;7.13;;
27728;SDS011;15126;42.186;24.340;2023-07-13T08:51:44;7.88;;;6.72;;
27728;SDS011;15126;42.186;24.340;2023-07-13T08:54:20;7.85;;;7.03;;
27728;SDS011;15126;42.186;24.340;2023-07-13T08:56:49;8.50;;;6.28;;
27728;SDS011;15126;42.186;24.340;2023-07-13T08:59:20;7.30;;;6.68;;
27728;SDS011;15126;42.186;24.340;2023-07-13T09:04:53;8.45;;;6.47;;
27728;SDS011;15126;42.186;24.340;2023-07-13T09:07:27;7.63;;;6.90;;
27728;SDS011;15126;42.186;24.340;2023-07-13T09:10:02;7.03;;;6.50;;
27728;SDS011;15126;42.186;24.340;2023-07-13T09:12:40;7.15;;;6.55;;
27728;SDS011;15126;42.186;24.340;2023-07-13T09:15:18;9.57;;;7.40;;
27728;SDS011;15126;42.186;24.340;2023-07-13T09:17:52;7.10;;;6.50;;
27728;SDS011;15126;42.186;24.340;2023-07-13T09:20:22;13.23;;;6.75;;
27728;SDS011;15126;42.186;24.340;2023-07-13T09:22:53;7.32;;;6.82;;
27728;SDS011;15126;42.186;24.340;2023-07-13T09:25:24;15.10;;;7.50;;
27728;SDS011;15126;42.186;24.340;2023-07-13T09:27:56;7.72;;;6.97;;
27728;SDS011;15126;42.186;24.340;2023-07-13T09:30:31;11.48;;;7.47;;
27728;SDS011;15126;42.186;24.340;2023-07-13T09:33:05;7.28;;;6.50;;
27728;SDS011;15126;42.186;24.340;2023-07-13T09:35:31;8.60;;;7.47;;
27728;SDS011;15126;42.186;24.340;2023-07-13T09:37:59;8.50;;;7.63;;
27728;SDS011;15126;42.186;24.340;2023-07-13T09:40:39;7.50;;;6.80;;
27728;SDS011;15126;42.186;24.340;2023-07-13T09:43:14;7.25;;;6.65;;
27728;SDS011;15126;42.186;24.340;2023-07-13T09:45:45;7.57;;;7.00;;
27728;SDS011;15126;42.186;24.340;2023-07-13T09:48:14;8.30;;;6.80;;
27728;SDS011;15126;42.186;24.340;2023-07-13T09:50:43;11.25;;;7.13;;
27728;SDS011;15126;42.186;24.340;2023-07-13T09:53:11;8.38;;;7.05;;
27728;SDS011;15126;42.186;24.340;2023-07-13T09:55:40;7.60;;;6.97;;
27728;SDS011;15126;42.186;24.340;2023-07-13T09:58:12;7.97;;;7.18;;
27728;SDS011;15126;42.186;24.340;2023-07-13T10:00:41;8.38;;;6.93;;
27728;SDS011;15126;42.186;24.340;2023-07-13T10:03:16;8.15;;;6.63;;
27728;SDS011;15126;42.186;24.340;2023-07-13T10:05:44;11.15;;;6.93;;
27728;SDS011;15126;42.186;24.340;2023-07-13T10:08:16;7.03;;;6.32;;
27728;SDS011;15126;42.186;24.340;2023-07-13T10:10:52;8.15;;;7.35;;
27728;SDS011;15126;42.186;24.340;2023-07-13T10:13:28;7.55;;;6.03;;
27728;SDS011;15126;42.186;24.340;2023-07-13T10:15:57;9.35;;;6.90;;
27728;SDS011;15126;42.186;24.340;2023-07-13T10:18:27;8.57;;;6.82;;
27728;SDS011;15126;42.186;24.340;2023-07-13T10:20:58;8.32;;;7.53;;
27728;SDS011;15126;42.186;24.340;2023-07-13T10:23:39;7.07;;;6.38;;
27728;SDS011;15126;42.186;24.340;2023-07-13T10:26:09;6.55;;;6.05;;
27728;SDS011;15126;42.186;24.340;2023-07-13T10:28:41;7.10;;;6.50;;
27728;SDS011;15126;42.186;24.340;2023-07-13T10:31:13;7.10;;;6.43;;
27728;SDS011;15126;42.186;24.340;2023-07-13T10:33:43;7.50;;;6.90;;
27728;SDS011;15126;42.186;24.340;2023-07-13T10:36:14;7.53;;;6.75;;
27728;SDS011;15126;42.186;24.340;2023-07-13T10:38:46;9.27;;;7.25;;
27728;SDS011;15126;42.186;24.340;2023-07-13T10:41:17;7.22;;;6.55;;
27728;SDS011;15126;42.186;24.340;2023-07-13T10:43:47;10.35;;;6.90;;
27728;SDS011;15126;42.186;24.340;2023-07-13T10:46:18;7.90;;;7.35;;
27728;SDS011;15126;42.186;24.340;2023-07-13T10:48:49;7.28;;;6.75;;
27728;SDS011;15126;42.186;24.340;2023-07-13T10:51:22;7.75;;;7.05;;
27728;SDS011;15126;42.186;24.340;2023-07-13T10:56:41;11.50;;;6.63;;
27728;SDS011;15126;42.186;24.340;2023-07-13T10:59:10;7.63;;;7.03;;
27728;SDS011;15126;42.186;24.340;2023-07-13T11:01:46;9.00;;;6.75;;
27728;SDS011;15126;42.186;24.340;2023-07-13T11:04:19;6.97;;;6.30;;
27728;SDS011;15126;42.186;24.340;2023-07-13T11:06:47;9.93;;;5.85;;
27728;SDS011;15126;42.186;24.340;2023-07-13T11:09:30;7.35;;;6.63;;
27728;SDS011;15126;42.186;24.340;2023-07-13T11:12:06;12.45;;;7.20;;
27728;SDS011;15126;42.186;24.340;2023-07-13T11:14:42;7.20;;;6.50;;
27728;SDS011;15126;42.186;24.340;2023-07-13T11:20:21;8.10;;;6.90;;
27728;SDS011;15126;42.186;24.340;2023-07-13T11:23:26;7.18;;;6.63;;
27728;SDS011;15126;42.186;24.340;2023-07-13T11:25:56;8.73;;;6.55;;
27728;SDS011;15126;42.186;24.340;2023-07-13T11:28:25;10.15;;;6.78;;
27728;SDS011;15126;42.186;24.340;2023-07-13T11:31:13;8.68;;;6.97;;
27728;SDS011;15126;42.186;24.340;2023-07-13T11:33:52;8.90;;;7.15;;
27728;SDS011;15126;42.186;24.340;2023-07-13T11:36:27;10.15;;;8.07;;
27728;SDS011;15126;42.186;24.340;2023-07-13T11:38:59;8.90;;;6.90;;
27728;SDS011;15126;42.186;24.340;2023-07-13T11:41:30;8.10;;;7.32;;
27728;SDS011;15126;42.186;24.340;2023-07-13T11:44:02;9.15;;;7.03;;
27728;SDS011;15126;42.186;24.340;2023-07-13T11:46:33;9.98;;;7.57;;
27728;SDS011;15126;42.186;24.340;2023-07-13T11:49:04;8.95;;;7.13;;
27728;SDS011;15126;42.186;24.340;2023-07-13T11:51:34;10.75;;;7.95;;
27728;SDS011;15126;42.186;24.340;2023-07-13T11:54:03;8.70;;;7.55;;
27728;SDS011;15126;42.186;24.340;2023-07-13T11:56:33;7.57;;;6.63;;
27728;SDS011;15126;42.186;24.340;2023-07-13T11:59:04;7.22;;;6.53;;
27728;SDS011;15126;42.186;24.340;2023-07-13T12:01:32;8.90;;;7.55;;
27728;SDS011;15126;42.186;24.340;2023-07-13T12:04:03;8.55;;;6.60;;
27728;SDS011;15126;42.186;24.340;2023-07-13T12:06:33;8.23;;;6.68;;
27728;SDS011;15126;42.186;24.340;2023-07-13T12:09:10;9.35;;;7.80;;
27728;SDS011;15126;42.186;24.340;2023-07-13T12:11:39;14.95;;;7.40;;
27728;SDS011;15126;42.186;24.340;2023-07-13T12:14:12;16.65;;;6.35;;
27728;SDS011;15126;42.186;24.340;2023-07-13T12:16:40;12.27;;;6.93;;
27728;SDS011;15126;42.186;24.340;2023-07-13T12:19:13;13.15;;;5.95;;
27728;SDS011;15126;42.186;24.340;2023-07-13T12:21:45;12.70;;;7.60;;
27728;SDS011;15126;42.186;24.340;2023-07-13T12:24:17;8.95;;;7.45;;
27728;SDS011;15126;42.186;24.340;2023-07-13T12:26:50;9.82;;;7.25;;
27728;SDS011;15126;42.186;24.340;2023-07-13T12:29:18;12.00;;;7.22;;
27728;SDS011;15126;42.186;24.340;2023-07-13T12:31:45;8.63;;;7.18;;
27728;SDS011;15126;42.186;24.340;2023-07-13T12:34:17;10.00;;;7.32;;
27728;SDS011;15126;42.186;24.340;2023-07-13T12:36:47;11.35;;;7.78;;
27728;SDS011;15126;42.186;24.340;2023-07-13T12:39:17;11.30;;;7.32;;
27728;SDS011;15126;42.186;24.340;2023-07-13T12:41:46;10.90;;;7.00;;
27728;SDS011;15126;42.186;24.340;2023-07-13T12:44:15;8.65;;;7.10;;
27728;SDS011;15126;42.186;24.340;2023-07-13T12:46:53;9.40;;;7.30;;
27728;SDS011;15126;42.186;24.340;2023-07-13T12:49:24;10.13;;;6.53;;
27728;SDS011;15126;42.186;24.340;2023-07-13T12:51:58;9.13;;;7.68;;
27728;SDS011;15126;42.186;24.340;2023-07-13T12:54:27;8.52;;;6.53;;
27728;SDS011;15126;42.186;24.340;2023-07-13T12:56:55;12.75;;;7.63;;
27728;SDS011;15126;42.186;24.340;2023-07-13T12:59:24;9.20;;;6.63;;
27728;SDS011;15126;42.186;24.340;2023-07-13T13:01:55;12.18;;;7.07;;
27728;SDS011;15126;42.186;24.340;2023-07-13T13:04:22;10.48;;;6.78;;
27728;SDS011;15126;42.186;24.340;2023-07-13T13:06:58;12.77;;;5.95;;
27728;SDS011;15126;42.186;24.340;2023-07-13T13:09:31;12.82;;;6.45;;
27728;SDS011;15126;42.186;24.340;2023-07-13T13:11:58;10.52;;;6.55;;
27728;SDS011;15126;42.186;24.340;2023-07-13T13:14:25;12.20;;;7.90;;
27728;SDS011;15126;42.186;24.340;2023-07-13T13:16:52;10.02;;;7.70;;
27728;SDS011;15126;42.186;24.340;2023-07-13T13:19:20;11.35;;;7.45;;
27728;SDS011;15126;42.186;24.340;2023-07-13T13:21:50;15.70;;;7.35;;
27728;SDS011;15126;42.186;24.340;2023-07-13T13:24:19;8.32;;;6.50;;
27728;SDS011;15126;42.186;24.340;2023-07-13T13:26:47;14.48;;;8.55;;
27728;SDS011;15126;42.186;24.340;2023-07-13T13:29:17;10.35;;;7.20;;
27728;SDS011;15126;42.186;24.340;2023-07-13T13:31:45;11.68;;;6.40;;
27728;SDS011;15126;42.186;24.340;2023-07-13T13:34:15;17.27;;;7.60;;
27728;SDS011;15126;42.186;24.340;2023-07-13T13:36:43;10.20;;;6.93;;
27728;SDS011;15126;42.186;24.340;2023-07-13T13:39:21;11.95;;;7.15;;
27728;SDS011;15126;42.186;24.340;2023-07-13T13:41:51;11.68;;;6.80;;
27728;SDS011;15126;42.186;24.340;2023-07-13T13:44:19;12.57;;;8.02;;
27728;SDS011;15126;42.186;24.340;2023-07-13T13:46:49;13.05;;;8.20;;
27728;SDS011;15126;42.186;24.340;2023-07-13T13:49:21;11.63;;;7.53;;
27728;SDS011;15126;42.186;24.340;2023-07-13T13:51:49;13.93;;;7.15;;
27728;SDS011;15126;42.186;24.340;2023-07-13T13:54:17;10.15;;;7.07;;
27728;SDS011;15126;42.186;24.340;2023-07-13T13:56:47;8.30;;;7.50;;
27728;SDS011;15126;42.186;24.340;2023-07-13T13:59:15;12.40;;;6.95;;
27728;SDS011;15126;42.186;24.340;2023-07-13T14:01:43;15.73;;;7.15;;
27728;SDS011;15126;42.186;24.340;2023-07-13T14:04:14;13.20;;;7.15;;
27728;SDS011;15126;42.186;24.340;2023-07-13T14:06:42;10.98;;;6.47;;
27728;SDS011;15126;42.186;24.340;2023-07-13T14:09:10;12.73;;;7.60;;
27728;SDS011;15126;42.186;24.340;2023-07-13T14:11:38;12.43;;;7.85;;
27728;SDS011;15126;42.186;24.340;2023-07-13T14:14:09;20.95;;;7.53;;
27728;SDS011;15126;42.186;24.340;2023-07-13T14:16:40;9.52;;;7.20;;
27728;SDS011;15126;42.186;24.340;2023-07-13T14:19:09;18.73;;;8.55;;
27728;SDS011;15126;42.186;24.340;2023-07-13T14:21:39;7.45;;;6.45;;
27728;SDS011;15126;42.186;24.340;2023-07-13T14:24:05;11.38;;;7.57;;
27728;SDS011;15126;42.186;24.340;2023-07-13T14:26:35;11.65;;;8.13;;
27728;SDS011;15126;42.186;24.340;2023-07-13T14:29:04;19.13;;;8.00;;
27728;SDS011;15126;42.186;24.340;2023-07-13T14:31:41;12.00;;;7.75;;
27728;SDS011;15126;42.186;24.340;2023-07-13T14:34:08;19.67;;;8.43;;
27728;SDS011;15126;42.186;24.340;2023-07-13T14:36:37;17.73;;;8.50;;
27728;SDS011;15126;42.186;24.340;2023-07-13T14:39:11;11.80;;;7.00;;
27728;SDS011;15126;42.186;24.340;2023-07-13T14:41:40;12.25;;;7.53;;
27728;SDS011;15126;42.186;24.340;2023-07-13T14:44:10;11.07;;;8.13;;